createdAt,value
2023-04-11T00:01:50.592Z,77.40
2023-04-11T00:04:21.504Z,81.00
2023-04-11T00:06:50.180Z,78.10
2023-04-11T00:09:18.762Z,86.20
2023-04-11T00:11:47.252Z,87.70
2023-04-11T00:14:16.133Z,90.90
2023-04-11T00:16:44.531Z,85.00
2023-04-11T00:19:13.061Z,96.10
2023-04-11T00:21:41.469Z,89.70
2023-04-11T00:24:10.282Z,84.00
2023-04-11T00:26:38.715Z,90.30
2023-04-11T00:29:07.129Z,96.50
2023-04-11T00:31:35.633Z,96.50
2023-04-11T00:34:04.162Z,98.30
2023-04-11T00:36:38.698Z,98.20
2023-04-11T00:39:07.893Z,98.40
2023-04-11T00:41:36.683Z,99.90
2023-04-11T00:44:05.213Z,99.90
2023-04-11T00:46:36.746Z,99.90
2023-04-11T00:49:05.180Z,99.90
2023-04-11T00:51:33.788Z,99.90
2023-04-11T00:54:02.568Z,99.90
2023-04-11T00:56:31.391Z,99.90
2023-04-11T00:59:00.052Z,99.90
2023-04-11T01:01:30.885Z,99.90
2023-04-11T01:04:01.648Z,99.90
2023-04-11T01:06:31.714Z,99.90
2023-04-11T01:09:00.459Z,99.90
2023-04-11T01:11:28.955Z,99.90
2023-04-11T01:13:57.538Z,99.90
2023-04-11T01:16:26.004Z,99.90
2023-04-11T01:18:54.646Z,99.90
2023-04-11T01:21:23.977Z,99.90
2023-04-11T01:23:57.398Z,99.90
2023-04-11T01:26:26.507Z,99.90
2023-04-11T01:28:55.164Z,99.90
2023-04-11T01:31:23.760Z,99.90
2023-04-11T01:33:52.210Z,99.90
2023-04-11T01:36:20.754Z,99.90
2023-04-11T01:38:50.228Z,99.90
2023-04-11T01:41:20.432Z,99.90
2023-04-11T01:43:49.334Z,99.90
2023-04-11T01:46:18.239Z,99.90
2023-04-11T01:48:46.783Z,99.90
2023-04-11T01:51:15.273Z,99.90
2023-04-11T01:53:43.753Z,99.90
2023-04-11T01:56:12.677Z,99.90
2023-04-11T01:58:41.949Z,99.90
2023-04-11T02:01:10.710Z,99.90
2023-04-11T02:03:39.156Z,99.90
2023-04-11T02:06:07.800Z,99.90
2023-04-11T02:08:36.494Z,99.90
2023-04-11T02:11:05.421Z,99.90
2023-04-11T02:13:33.786Z,99.90
2023-04-11T02:16:15.781Z,99.90
2023-04-11T02:18:46.002Z,99.90
2023-04-11T02:21:14.435Z,99.90
2023-04-11T02:23:42.861Z,99.90
2023-04-11T02:26:11.642Z,99.90
2023-04-11T02:28:40.037Z,99.90
2023-04-11T02:31:08.831Z,99.90
2023-04-11T02:33:37.297Z,99.90
2023-04-11T02:36:05.810Z,99.90
2023-04-11T02:38:34.411Z,99.90
2023-04-11T02:41:02.832Z,99.90
2023-04-11T02:43:31.366Z,99.90
2023-04-11T02:46:11.557Z,99.90
2023-04-11T02:48:40.902Z,99.90
2023-04-11T02:51:09.494Z,99.90
2023-04-11T02:53:38.179Z,99.90
2023-04-11T02:56:08.152Z,99.90
2023-04-11T02:58:39.757Z,99.90
2023-04-11T03:01:08.969Z,99.90
2023-04-11T03:03:37.428Z,99.90
2023-04-11T03:06:07.749Z,99.90
2023-04-11T03:08:40.001Z,99.90
2023-04-11T03:11:08.474Z,99.90
2023-04-11T03:13:40.195Z,99.90
2023-04-11T03:16:09.042Z,99.90
2023-04-11T03:18:37.441Z,99.90
2023-04-11T03:21:08.360Z,99.90
2023-04-11T03:23:36.832Z,99.90
2023-04-11T03:26:07.094Z,99.90
2023-04-11T03:28:35.789Z,99.90
2023-04-11T03:31:04.226Z,99.90
2023-04-11T03:33:32.637Z,99.90
2023-04-11T03:36:01.702Z,99.90
2023-04-11T03:38:30.260Z,99.90
2023-04-11T03:40:58.696Z,99.90
2023-04-11T03:43:27.071Z,99.90
2023-04-11T03:45:55.497Z,99.90
2023-04-11T03:48:27.184Z,99.90
2023-04-11T03:50:55.761Z,99.90
2023-04-11T03:53:24.149Z,99.90
2023-04-11T03:55:53.735Z,99.90
2023-04-11T03:58:22.420Z,99.90
2023-04-11T04:00:50.805Z,99.90
2023-04-11T04:03:19.403Z,99.90
2023-04-11T04:05:48.029Z,99.90
2023-04-11T04:08:16.477Z,99.90
2023-04-11T04:10:44.856Z,99.90
2023-04-11T04:13:13.333Z,99.90
2023-04-11T04:15:41.707Z,99.90
2023-04-11T04:18:10.401Z,99.90
2023-04-11T04:20:38.856Z,99.90
2023-04-11T04:23:07.285Z,99.90
2023-04-11T04:25:36.276Z,99.90
2023-04-11T04:28:04.724Z,99.90
2023-04-11T04:30:33.499Z,99.90
2023-04-11T04:33:01.921Z,99.90
2023-04-11T04:35:30.431Z,99.90
2023-04-11T04:37:58.828Z,99.90
2023-04-11T04:40:28.242Z,99.90
2023-04-11T04:42:59.688Z,99.90
2023-04-11T04:45:28.162Z,99.90
2023-04-11T04:47:56.796Z,99.90
2023-04-11T04:50:25.265Z,99.90
2023-04-11T04:52:53.685Z,99.90
2023-04-11T04:55:22.089Z,99.90
2023-04-11T04:57:50.565Z,99.90
2023-04-11T05:00:21.158Z,99.90
2023-04-11T05:02:55.508Z,99.90
2023-04-11T05:05:23.976Z,99.90
2023-04-11T05:07:52.402Z,99.90
2023-04-11T05:10:20.922Z,99.90
2023-04-11T05:12:49.340Z,99.90
2023-04-11T05:15:18.541Z,99.90
2023-04-11T05:17:47.058Z,99.90
2023-04-11T05:20:16.237Z,99.90
2023-04-11T05:22:45.272Z,99.90
2023-04-11T05:25:13.744Z,99.90
2023-04-11T05:27:42.169Z,99.90
2023-04-11T05:30:11.129Z,99.90
2023-04-11T05:32:39.637Z,99.90
2023-04-11T05:35:08.559Z,99.90
2023-04-11T05:37:37.991Z,99.90
2023-04-11T05:40:09.355Z,99.90
2023-04-11T05:42:37.947Z,99.90
2023-04-11T05:45:07.215Z,99.90
2023-04-11T05:47:35.706Z,96.90
2023-04-11T05:50:04.165Z,91.40
2023-04-11T05:52:32.543Z,94.90
2023-04-11T05:55:02.161Z,98.70
2023-04-11T05:57:30.552Z,99.60
2023-04-11T06:00:02.605Z,99.20
2023-04-11T06:02:31.187Z,99.90
2023-04-11T06:04:59.721Z,99.90
2023-04-11T06:07:28.670Z,99.90
2023-04-11T06:09:57.101Z,99.90
2023-04-11T06:12:25.553Z,99.90
2023-04-11T06:14:54.014Z,95.30
2023-04-11T06:17:22.460Z,98.30
2023-04-11T06:19:50.869Z,97.70
2023-04-11T06:22:19.278Z,97.30
2023-04-11T06:24:48.488Z,99.20
2023-04-11T06:27:17.246Z,99.90
2023-04-11T06:29:45.689Z,99.90
2023-04-11T06:32:14.133Z,99.90
2023-04-11T06:34:42.742Z,99.90
2023-04-11T06:37:11.383Z,98.20
2023-04-11T06:39:39.800Z,99.90
2023-04-11T06:42:08.254Z,99.90
2023-04-11T06:44:37.079Z,99.90
2023-04-11T06:47:05.649Z,99.90
2023-04-11T06:49:34.757Z,99.90
2023-04-11T06:52:04.584Z,99.90
2023-04-11T06:54:32.947Z,99.90
2023-04-11T06:57:01.391Z,99.90
2023-04-11T06:59:29.923Z,99.90
2023-04-11T07:01:59.601Z,99.90
2023-04-11T07:04:28.513Z,99.90
2023-04-11T07:06:57.047Z,99.90
2023-04-11T07:09:25.443Z,99.90
2023-04-11T07:11:53.815Z,99.90
2023-04-11T07:14:22.248Z,99.90
2023-04-11T07:16:50.611Z,99.90
2023-04-11T07:19:18.996Z,99.90
2023-04-11T07:21:47.483Z,99.90
2023-04-11T07:24:19.226Z,99.90
2023-04-11T07:26:48.800Z,99.90
2023-04-11T07:29:17.185Z,99.90
2023-04-11T07:31:45.915Z,99.90
2023-04-11T07:34:14.333Z,99.90
2023-04-11T07:36:42.862Z,99.90
2023-04-11T07:39:13.084Z,99.90
2023-04-11T07:41:41.606Z,99.90
2023-04-11T07:44:10.418Z,99.90
2023-04-11T07:46:38.872Z,99.90
2023-04-11T07:49:07.331Z,99.90
2023-04-11T07:51:35.724Z,99.90
2023-04-11T07:54:04.203Z,99.90
2023-04-11T07:56:32.678Z,99.90
2023-04-11T07:59:02.160Z,99.90
2023-04-11T08:01:30.618Z,99.90
2023-04-11T08:03:59.706Z,99.90
2023-04-11T08:06:29.854Z,99.90
2023-04-11T08:08:59.521Z,99.90
2023-04-11T08:11:28.097Z,99.90
2023-04-11T08:13:56.884Z,99.90
2023-04-11T08:16:25.629Z,99.90
2023-04-11T08:18:54.077Z,99.90
2023-04-11T08:21:25.876Z,99.90
2023-04-11T08:23:54.533Z,99.90
2023-04-11T08:26:23.495Z,99.90
2023-04-11T08:28:51.945Z,99.90
2023-04-11T08:31:23.062Z,99.90
2023-04-11T08:33:52.191Z,99.90
2023-04-11T08:36:20.622Z,99.90
2023-04-11T08:38:49.131Z,99.90
2023-04-11T08:41:17.560Z,99.90
2023-04-11T08:43:47.760Z,99.90
2023-04-11T08:46:17.293Z,99.90
2023-04-11T08:48:46.076Z,99.90
2023-04-11T08:51:15.544Z,99.90
2023-04-11T08:53:44.928Z,99.90
2023-04-11T08:56:19.974Z,99.90
2023-04-11T08:58:49.951Z,99.90
2023-04-11T09:01:28.399Z,99.90
2023-04-11T09:03:57.534Z,99.90
2023-04-11T09:06:27.660Z,99.90
2023-04-11T09:08:56.033Z,99.90
2023-04-11T09:11:25.167Z,99.90
2023-04-11T09:14:10.392Z,99.90
2023-04-11T09:16:54.040Z,99.90
2023-04-11T09:19:30.202Z,99.90
2023-04-11T09:22:04.982Z,99.90
2023-04-11T09:24:35.344Z,99.90
2023-04-11T09:27:14.497Z,99.90
2023-04-11T09:29:46.195Z,99.90
2023-04-11T09:32:31.485Z,99.90
2023-04-11T09:35:13.796Z,99.90
2023-04-11T09:37:48.205Z,99.90
2023-04-11T09:40:18.544Z,99.90
2023-04-11T09:42:57.009Z,99.90
2023-04-11T09:45:27.349Z,99.90
2023-04-11T09:47:58.493Z,99.90
2023-04-11T09:50:28.928Z,99.90
2023-04-11T09:52:59.052Z,99.90
2023-04-11T09:55:28.187Z,99.90
2023-04-11T09:57:56.842Z,99.90
2023-04-11T10:00:30.804Z,99.90
2023-04-11T10:03:00.041Z,99.90
2023-04-11T10:05:30.420Z,99.90
2023-04-11T10:08:17.957Z,99.90
2023-04-11T10:10:46.719Z,99.90
2023-04-11T10:13:43.940Z,99.90
2023-04-11T10:16:16.201Z,99.90
2023-04-11T10:18:57.138Z,99.90
2023-04-11T10:21:31.517Z,99.90
2023-04-11T10:24:17.559Z,99.90
2023-04-11T10:27:04.024Z,99.90
2023-04-11T10:29:32.408Z,99.90
2023-04-11T10:32:20.925Z,99.90
2023-04-11T10:34:52.306Z,99.90
2023-04-11T10:37:37.338Z,99.90
2023-04-11T10:40:11.051Z,99.90
2023-04-11T10:42:47.523Z,99.90
2023-04-11T10:45:29.106Z,99.90
2023-04-11T10:48:04.669Z,99.90
2023-04-11T10:50:33.101Z,99.90
2023-04-11T10:53:06.048Z,99.90
2023-04-11T10:55:54.647Z,99.90
2023-04-11T10:58:23.102Z,99.90
2023-04-11T11:00:55.049Z,99.90
2023-04-11T11:03:26.535Z,99.90
2023-04-11T11:06:03.130Z,99.90
2023-04-11T11:08:34.013Z,99.90
2023-04-11T11:11:12.886Z,99.90
2023-04-11T11:13:42.401Z,99.90
2023-04-11T11:16:14.951Z,99.90
2023-04-11T11:18:47.653Z,99.90
2023-04-11T11:21:26.782Z,99.90
2023-04-11T11:24:04.185Z,99.90
2023-04-11T11:26:43.937Z,99.90
2023-04-11T11:29:12.968Z,99.90
2023-04-11T11:31:46.280Z,99.90
2023-04-11T11:34:23.646Z,99.90
2023-04-11T11:36:53.711Z,99.90
2023-04-11T11:39:23.368Z,99.90
2023-04-11T11:41:52.932Z,99.90
2023-04-11T11:44:26.233Z,99.90
2023-04-11T11:47:06.825Z,99.90
2023-04-11T11:49:48.990Z,99.90
2023-04-11T11:52:35.350Z,99.90
2023-04-11T11:55:08.831Z,99.90
2023-04-11T11:57:38.915Z,99.90
2023-04-11T12:00:10.973Z,99.90
2023-04-11T12:02:43.296Z,99.90
2023-04-11T12:05:15.393Z,99.90
2023-04-11T12:07:43.926Z,99.90
2023-04-11T12:10:17.740Z,99.90
2023-04-11T12:12:53.449Z,99.90
2023-04-11T12:15:27.391Z,99.90
2023-04-11T12:17:56.359Z,99.90
2023-04-11T12:20:28.306Z,99.90
2023-04-11T12:22:57.057Z,99.90
2023-04-11T12:25:28.384Z,99.90
2023-04-11T12:27:56.808Z,99.90
2023-04-11T12:30:25.354Z,99.90
2023-04-11T12:32:53.852Z,99.90
2023-04-11T12:35:22.299Z,99.90
2023-04-11T12:37:51.111Z,99.90
2023-04-11T12:40:20.352Z,99.90
2023-04-11T12:42:56.739Z,99.90
2023-04-11T12:45:26.805Z,99.90
2023-04-11T12:47:55.336Z,99.90
2023-04-11T12:50:24.479Z,99.90
2023-04-11T12:52:55.160Z,99.90
2023-04-11T12:55:24.784Z,99.90
2023-04-11T12:57:53.363Z,99.90
2023-04-11T13:00:21.991Z,99.90
2023-04-11T13:02:50.558Z,99.90
2023-04-11T13:05:19.484Z,99.90
2023-04-11T13:07:48.330Z,99.90
2023-04-11T13:10:17.655Z,99.90
2023-04-11T13:12:47.266Z,99.90
2023-04-11T13:15:17.557Z,99.90
2023-04-11T13:17:46.278Z,99.90
2023-04-11T13:20:15.044Z,99.90
2023-04-11T13:22:44.269Z,99.90
2023-04-11T13:25:13.162Z,99.90
2023-04-11T13:27:43.281Z,99.90
2023-04-11T13:30:12.645Z,99.90
2023-04-11T13:32:41.210Z,99.90
2023-04-11T13:35:10.264Z,99.90
2023-04-11T13:37:38.734Z,99.90
2023-04-11T13:40:11.679Z,99.90
2023-04-11T13:42:40.234Z,99.90
2023-04-11T13:45:09.294Z,99.90
2023-04-11T13:47:38.958Z,99.90
2023-04-11T13:50:09.959Z,99.90
2023-04-11T13:52:38.422Z,99.90
2023-04-11T13:55:07.693Z,99.90
2023-04-11T13:57:36.167Z,99.90
2023-04-11T14:00:22.896Z,99.90
2023-04-11T14:02:52.541Z,99.90
2023-04-11T14:05:21.348Z,99.90
2023-04-11T14:07:50.512Z,99.90
2023-04-11T14:10:18.961Z,99.90
2023-04-11T14:12:47.739Z,99.90
2023-04-11T14:15:16.186Z,99.90
2023-04-11T14:17:44.904Z,99.90
2023-04-11T14:20:14.059Z,99.90
2023-04-11T14:22:46.456Z,99.90
2023-04-11T14:25:16.499Z,99.90
2023-04-11T14:27:45.718Z,99.90
2023-04-11T14:30:14.573Z,99.90
2023-04-11T14:32:43.147Z,99.90
2023-04-11T14:35:11.694Z,99.90
2023-04-11T14:37:40.122Z,99.90
2023-04-11T14:40:11.585Z,99.90
2023-04-11T14:42:40.673Z,99.90
2023-04-11T14:45:09.451Z,99.90
2023-04-11T14:47:38.368Z,99.90
2023-04-11T14:50:07.858Z,99.90
2023-04-11T14:52:36.394Z,99.90
2023-04-11T14:55:04.917Z,99.90
2023-04-11T14:57:52.049Z,99.90
2023-04-11T15:00:20.782Z,99.90
2023-04-11T15:02:51.955Z,99.90
2023-04-11T15:05:21.180Z,99.90
2023-04-11T15:07:51.322Z,99.90
2023-04-11T15:10:22.377Z,99.90
2023-04-11T15:12:51.199Z,99.90
2023-04-11T15:15:19.614Z,99.90
2023-04-11T15:17:49.959Z,99.90
2023-04-11T15:20:20.439Z,99.90
2023-04-11T15:22:49.590Z,99.90
2023-04-11T15:25:18.284Z,99.90
2023-04-11T15:27:46.883Z,99.90
2023-04-11T15:30:16.066Z,99.90
2023-04-11T15:32:44.882Z,99.90
2023-04-11T15:35:13.652Z,99.90
2023-04-11T15:37:42.346Z,99.90
2023-04-11T15:40:16.123Z,99.90
2023-04-11T15:42:44.610Z,99.90
2023-04-11T15:45:13.353Z,99.90
2023-04-11T15:47:41.978Z,99.90
2023-04-11T15:50:10.792Z,99.90
2023-04-11T15:52:39.186Z,99.90
2023-04-11T15:55:08.388Z,99.90
2023-04-11T15:57:37.124Z,99.90
2023-04-11T16:00:10.049Z,99.90
2023-04-11T16:02:39.039Z,99.90
2023-04-11T16:05:08.598Z,93.90
2023-04-11T16:07:37.128Z,92.00
2023-04-11T16:10:06.021Z,50.70
2023-04-11T16:12:34.948Z,1.00
2023-04-11T16:15:04.153Z,1.00
2023-04-11T16:17:32.551Z,1.00
2023-04-11T16:20:01.459Z,1.00
2023-04-11T16:22:29.883Z,1.00
2023-04-11T16:24:58.605Z,1.00
2023-04-11T16:27:26.979Z,1.00
2023-04-11T16:30:00.625Z,1.00
2023-04-11T16:32:29.840Z,1.00
2023-04-11T16:34:58.634Z,1.00
2023-04-11T16:37:27.462Z,1.00
2023-04-11T16:39:56.169Z,1.00
2023-04-11T16:42:24.706Z,1.00
2023-04-11T16:44:53.361Z,1.00
2023-04-11T16:47:26.796Z,1.00
2023-04-11T16:49:55.819Z,1.00
2023-04-11T16:52:24.290Z,1.00
2023-04-11T16:54:52.910Z,1.00
2023-04-11T16:57:21.343Z,1.00
2023-04-11T16:59:49.764Z,1.00
2023-04-11T17:02:18.312Z,1.00
2023-04-11T17:04:46.938Z,1.00
2023-04-11T17:07:15.458Z,1.00
2023-04-11T17:09:43.879Z,1.00
2023-04-11T17:12:12.413Z,1.00
2023-04-11T17:14:40.780Z,1.00
2023-04-11T17:17:09.222Z,1.00
2023-04-11T17:19:37.741Z,1.00
2023-04-11T17:22:06.734Z,1.00
2023-04-11T17:24:35.796Z,1.00
2023-04-11T17:27:04.195Z,1.00
2023-04-11T17:29:32.757Z,1.00
2023-04-11T17:32:01.219Z,1.00
2023-04-11T17:34:29.994Z,1.00
2023-04-11T17:36:58.466Z,1.00
2023-04-11T17:39:26.939Z,1.00
2023-04-11T17:41:56.205Z,1.00
2023-04-11T17:44:24.706Z,1.00
2023-04-11T17:46:53.180Z,1.00
2023-04-11T17:49:22.411Z,1.00
2023-04-11T17:51:59.157Z,1.00
2023-04-11T17:54:28.232Z,1.00
2023-04-11T17:56:57.153Z,1.00
2023-04-11T17:59:26.217Z,1.00
2023-04-11T18:01:56.769Z,1.00
2023-04-11T18:04:25.397Z,1.00
2023-04-11T18:06:53.838Z,1.00
2023-04-11T18:09:22.761Z,1.00
2023-04-11T18:11:51.374Z,1.00
2023-04-11T18:14:19.802Z,1.00
2023-04-11T18:16:48.449Z,1.00
2023-04-11T18:19:16.917Z,1.00
2023-04-11T18:21:45.317Z,1.00
2023-04-11T18:24:13.739Z,1.00
2023-04-11T18:26:42.133Z,1.00
2023-04-11T18:29:10.497Z,1.00
2023-04-11T18:31:38.938Z,1.00
2023-04-11T18:34:08.295Z,1.00
2023-04-11T18:36:37.424Z,1.00
2023-04-11T18:39:06.126Z,1.00
2023-04-11T18:41:34.536Z,1.00
2023-04-11T18:44:03.562Z,1.00
2023-04-11T18:46:34.221Z,1.00
2023-04-11T18:49:06.012Z,1.00
2023-04-11T18:51:36.414Z,1.00
2023-04-11T18:54:05.320Z,1.00
2023-04-11T18:56:34.307Z,1.00
2023-04-11T18:59:06.531Z,1.00
2023-04-11T19:01:37.940Z,1.00
2023-04-11T19:04:07.622Z,1.00
2023-04-11T19:06:36.678Z,1.00
2023-04-11T19:09:05.198Z,1.00
2023-04-11T19:11:33.751Z,1.00
2023-04-11T19:14:03.013Z,1.00
2023-04-11T19:16:32.737Z,1.00
2023-04-11T19:19:01.976Z,1.00
2023-04-11T19:21:30.444Z,1.00
2023-04-11T19:24:00.076Z,1.00
2023-04-11T19:26:28.669Z,1.00
2023-04-11T19:28:57.170Z,1.00
2023-04-11T19:31:26.525Z,1.00
2023-04-11T19:33:55.680Z,1.00
2023-04-11T19:36:24.576Z,1.00
2023-04-11T19:38:53.417Z,1.00
2023-04-11T19:41:21.916Z,1.00
2023-04-11T19:43:50.333Z,1.00
2023-04-11T19:46:18.998Z,1.00
2023-04-11T19:48:48.034Z,1.00
2023-04-11T19:51:18.060Z,1.00
2023-04-11T19:53:46.791Z,1.00
2023-04-11T19:56:17.494Z,1.00
2023-04-11T19:58:45.988Z,1.00
2023-04-11T20:01:16.477Z,1.00
2023-04-11T20:03:45.160Z,1.00
2023-04-11T20:06:13.725Z,1.00
2023-04-11T20:08:42.183Z,1.00
2023-04-11T20:11:14.761Z,1.00
2023-04-11T20:13:43.205Z,1.00
2023-04-11T20:16:12.128Z,1.00
2023-04-11T20:18:40.596Z,1.00
2023-04-11T20:21:10.175Z,1.00
2023-04-11T20:23:38.596Z,1.00
2023-04-11T20:26:07.142Z,1.00
2023-04-11T20:28:35.602Z,1.00
2023-04-11T20:31:05.291Z,1.00
2023-04-11T20:33:33.740Z,1.00
2023-04-11T20:36:04.051Z,1.00
2023-04-11T20:38:32.485Z,1.00
2023-04-11T20:41:04.486Z,1.00
2023-04-11T20:43:33.126Z,1.00
2023-04-11T20:46:01.605Z,1.00
2023-04-11T20:48:30.561Z,1.00
2023-04-11T20:51:02.552Z,1.00
2023-04-11T20:53:31.257Z,1.00
2023-04-11T20:55:59.652Z,1.00
2023-04-11T20:58:28.734Z,1.00
2023-04-11T21:00:57.676Z,1.00
2023-04-11T21:03:26.241Z,1.00
2023-04-11T21:05:54.666Z,1.00
2023-04-11T21:08:24.582Z,1.00
2023-04-11T21:10:52.949Z,1.00
2023-04-11T21:13:21.396Z,1.00
2023-04-11T21:15:49.939Z,1.00
2023-04-11T21:18:18.393Z,1.00
2023-04-11T21:20:47.087Z,1.00
2023-04-11T21:23:15.533Z,1.00
2023-04-11T21:25:43.935Z,1.00
2023-04-11T21:28:14.481Z,1.00
2023-04-11T21:30:43.192Z,1.00
2023-04-11T21:33:11.679Z,1.00
2023-04-11T21:35:40.109Z,1.00
2023-04-11T21:38:09.372Z,1.00
2023-04-11T21:40:37.757Z,1.00
2023-04-11T21:43:07.320Z,1.00
2023-04-11T21:45:35.788Z,1.00
2023-04-11T21:48:04.320Z,1.00
2023-04-11T21:50:32.741Z,1.00
2023-04-11T21:53:01.163Z,1.00
2023-04-11T21:55:29.548Z,1.00
2023-04-11T21:57:58.034Z,1.00
2023-04-11T22:00:26.713Z,1.00
2023-04-11T22:02:55.329Z,1.00
2023-04-11T22:05:24.327Z,1.00
2023-04-11T22:07:53.053Z,1.00
2023-04-11T22:10:24.313Z,1.00
2023-04-11T22:12:55.224Z,1.00
2023-04-11T22:15:24.697Z,1.00
2023-04-11T22:17:55.226Z,1.00
2023-04-11T22:20:23.652Z,1.00
2023-04-11T22:22:52.052Z,1.00
2023-04-11T22:25:23.024Z,1.00
2023-04-11T22:27:55.049Z,1.00
2023-04-11T22:30:24.374Z,1.00
2023-04-11T22:32:54.779Z,1.00
2023-04-11T22:35:25.586Z,1.00
2023-04-11T22:37:56.157Z,1.00
2023-04-11T22:40:25.216Z,1.00
2023-04-11T22:42:54.484Z,1.00
2023-04-11T22:45:24.355Z,1.00
2023-04-11T22:47:55.024Z,1.00
2023-04-11T22:50:23.669Z,1.00
2023-04-11T22:52:52.389Z,1.00
2023-04-11T22:55:21.842Z,1.00
2023-04-11T22:57:50.249Z,1.00
2023-04-11T23:00:19.600Z,1.00
2023-04-11T23:02:48.449Z,1.00
2023-04-11T23:05:17.606Z,1.00
2023-04-11T23:07:46.078Z,1.00
2023-04-11T23:10:18.171Z,1.00
2023-04-11T23:12:46.686Z,1.00
2023-04-11T23:15:15.546Z,1.00
2023-04-11T23:17:44.650Z,1.00
2023-04-11T23:20:14.127Z,1.00
2023-04-11T23:22:44.596Z,1.00
2023-04-11T23:25:15.727Z,1.00
2023-04-11T23:27:44.506Z,1.00
2023-04-11T23:30:13.800Z,1.00
2023-04-11T23:32:43.635Z,1.00
2023-04-11T23:35:12.644Z,1.00
2023-04-11T23:37:41.707Z,1.00
2023-04-11T23:40:11.611Z,1.00
2023-04-11T23:42:41.017Z,1.00
2023-04-11T23:45:11.407Z,1.00
2023-04-11T23:47:39.932Z,1.00
2023-04-11T23:50:09.239Z,1.00
2023-04-11T23:52:37.629Z,1.00
2023-04-11T23:55:06.494Z,1.00
2023-04-11T23:57:34.983Z,1.00
